Time,TemperatureF,DewpointF,PressureIn,WindDirection,WindDirectionDegrees,WindSpeedMPH,WindSpeedGustMPH,Humidity,HourlyPrecipIn,Conditions,Clouds,dailyrainin,SoftwareType,DateUTC
2013-06-02 00:00:00,63.8,56.8,29.57,WNW,298,4.0,11.0,78,0.00,,---,0.03,VWS V14.01,2013-06-02 05:00:00,
2013-06-02 00:30:00,63.1,56.8,29.57,NW,312,3.0,7.0,80,0.00,,---,0.00,VWS V14.01,2013-06-02 05:30:00,
2013-06-02 01:00:00,62.3,56.4,29.57,NNW,329,1.0,6.0,81,0.00,,---,0.00,VWS V14.01,2013-06-02 06:00:00,
2013-06-02 01:30:00,62.2,56.3,29.58,NNW,337,0.0,10.0,81,0.00,,---,0.00,VWS V14.01,2013-06-02 06:30:00,
2013-06-02 02:00:00,61.2,56.3,29.58,NNW,341,3.0,5.0,84,0.00,,---,0.00,VWS V14.01,2013-06-02 07:00:00,
2013-06-02 02:30:00,60.8,56.3,29.59,NNW,343,6.0,7.0,85,0.00,,---,0.00,VWS V14.01,2013-06-02 07:30:00,
2013-06-02 03:00:00,60.5,56.0,29.60,NNW,347,5.0,10.0,85,0.00,,---,0.00,VWS V14.01,2013-06-02 08:00:00,
2013-06-02 03:30:00,60.9,56.4,29.61,WNW,292,3.0,11.0,85,0.00,,---,0.00,VWS V14.01,2013-06-02 08:30:00,
2013-06-02 04:00:00,61.0,56.1,29.62,NNW,329,5.0,11.0,84,0.00,,---,0.00,VWS V14.01,2013-06-02 09:00:00,
2013-06-02 04:30:00,57.5,54.0,29.65,NNW,336,5.0,19.0,88,0.00,,---,0.00,VWS V14.01,2013-06-02 09:30:00,
2013-06-02 05:00:00,56.2,52.4,29.67,NNW,327,15.0,19.0,87,0.00,,---,0.00,VWS V14.01,2013-06-02 10:00:00,
2013-06-02 05:30:00,54.7,50.6,29.70,North,355,13.0,15.0,86,0.00,,---,0.00,VWS V14.01,2013-06-02 10:30:00,
2013-06-02 06:00:00,53.8,49.7,29.72,NW,315,9.0,18.0,86,0.01,,---,0.01,VWS V14.01,2013-06-02 11:00:00,
2013-06-02 06:30:00,53.2,48.8,29.74,NNW,346,5.0,13.0,85,0.01,,---,0.01,VWS V14.01,2013-06-02 11:30:00,
2013-06-02 07:00:00,52.0,47.3,29.77,NW,319,0.0,14.0,84,0.01,,---,0.01,VWS V14.01,2013-06-02 12:00:00,
2013-06-02 07:30:00,51.7,47.0,29.78,North,10,3.0,13.0,84,0.00,,---,0.01,VWS V14.01,2013-06-02 12:30:00,
2013-06-02 08:00:00,51.4,46.4,29.79,North,5,0.0,13.0,83,0.00,,---,0.01,VWS V14.01,2013-06-02 13:00:00,
2013-06-02 08:30:00,51.4,46.4,29.81,NNW,348,0.0,12.0,83,0.00,,---,0.01,VWS V14.01,2013-06-02 13:30:00,
2013-06-02 09:00:00,50.5,44.9,29.83,NW,326,8.0,16.0,81,0.00,,---,0.01,VWS V14.01,2013-06-02 14:00:00,
2013-06-02 09:30:00,50.1,44.8,29.83,NNW,331,7.0,13.0,82,0.00,,---,0.01,VWS V14.01,2013-06-02 14:30:00,
2013-06-02 10:00:00,50.9,44.0,29.84,North,360,2.0,16.0,77,0.00,,---,0.01,VWS V14.01,2013-06-02 15:00:00,
2013-06-02 10:30:00,50.8,43.9,29.85,NNW,346,0.0,14.0,77,0.00,,---,0.01,VWS V14.01,2013-06-02 15:30:00,
2013-06-02 11:00:00,51.3,44.0,29.86,North,355,0.0,13.0,76,0.00,,---,0.01,VWS V14.01,2013-06-02 16:00:00,
2013-06-02 11:30:00,51.3,43.3,29.87,North,360,8.0,13.0,74,0.00,,---,0.01,VWS V14.01,2013-06-02 16:30:00,
2013-06-02 12:00:00,51.4,43.0,29.88,North,5,0.0,14.0,73,0.00,,---,0.01,VWS V14.01,2013-06-02 17:00:00,
2013-06-02 12:30:00,51.9,43.5,29.89,North,5,0.0,13.0,73,0.00,,---,0.01,VWS V14.01,2013-06-02 17:30:00,
2013-06-02 13:00:00,52.5,43.0,29.89,NNE,15,0.0,13.0,70,0.00,,---,0.01,VWS V14.01,2013-06-02 18:00:00,
2013-06-02 13:30:00,52.5,42.6,29.90,NNW,348,12.0,13.0,69,0.00,,---,0.01,VWS V14.01,2013-06-02 18:30:00,
2013-06-02 14:00:00,54.2,43.9,29.90,North,360,0.0,12.0,68,0.00,,---,0.01,VWS V14.01,2013-06-02 19:00:00,
2013-06-02 14:30:00,54.2,43.5,29.90,North,355,0.0,2.0,67,0.00,,---,0.01,VWS V14.01,2013-06-02 19:30:00,
2013-06-02 15:00:00,55.2,43.2,29.90,NNW,343,0.0,12.0,64,0.00,,---,0.01,VWS V14.01,2013-06-02 20:00:00,
2013-06-02 15:30:00,55.1,45.1,29.91,East,85,0.0,1.0,69,0.00,,---,0.01,VWS V14.01,2013-06-02 20:30:00,
2013-06-02 16:00:00,53.0,44.2,29.91,SE,135,1.0,1.0,72,0.00,,---,0.01,VWS V14.01,2013-06-02 21:00:00,
2013-06-02 16:30:00,52.6,43.5,29.93,SE,125,0.0,1.0,71,0.00,,---,0.01,VWS V14.01,2013-06-02 21:30:00,
2013-06-02 17:00:00,53.1,44.7,29.92,SE,132,0.0,0.0,73,0.00,,---,0.01,VWS V14.01,2013-06-02 22:00:00,
2013-06-02 17:30:00,55.8,45.4,29.92,SE,134,0.0,0.0,68,0.00,,---,0.01,VWS V14.01,2013-06-02 22:30:00,
2013-06-02 18:00:00,55.0,45.4,29.92,SSW,192,0.0,0.0,70,0.00,,---,0.01,VWS V14.01,2013-06-02 23:00:00,
2013-06-02 18:30:00,55.4,46.2,29.92,West,261,0.0,1.0,71,0.00,,---,0.01,VWS V14.01,2013-06-02 23:30:00,
2013-06-02 19:00:00,53.6,45.2,29.92,SSW,192,0.0,2.0,73,0.00,,---,0.01,VWS V14.01,2013-06-03 00:00:00,
2013-06-02 19:30:00,54.5,45.7,29.93,South,181,0.0,0.0,72,0.00,,---,0.01,VWS V14.01,2013-06-03 00:30:00,
2013-06-02 20:00:00,52.4,45.4,29.93,SE,126,0.0,1.0,77,0.00,,---,0.01,VWS V14.01,2013-06-03 01:00:00,
2013-06-02 20:30:00,49.2,44.0,29.94,SE,124,0.0,3.0,82,0.00,,---,0.01,VWS V14.01,2013-06-03 01:30:00,
2013-06-02 21:00:00,47.7,42.8,29.95,ESE,114,0.0,2.0,83,0.00,,---,0.01,VWS V14.01,2013-06-03 02:00:00,
2013-06-02 21:30:00,46.3,41.7,29.95,SE,131,0.0,1.0,84,0.00,,---,0.01,VWS V14.01,2013-06-03 02:30:00,
2013-06-02 22:00:00,45.1,40.6,29.95,SE,127,0.0,0.0,84,0.00,,---,0.01,VWS V14.01,2013-06-03 03:00:00,
2013-06-02 22:30:00,44.3,39.8,29.96,SE,127,0.0,0.0,84,0.00,,---,0.01,VWS V14.01,2013-06-03 03:30:00,
2013-06-02 23:00:00,43.8,39.9,29.95,SE,127,0.0,0.0,86,0.00,,---,0.01,VWS V14.01,2013-06-03 04:00:00,
2013-06-02 23:30:00,43.2,39.6,29.95,SE,127,0.0,0.0,87,0.00,,---,0.01,VWS V14.01,2013-06-03 04:30:00,